AMI weather

Selaparang Airport
Mataram-Lombok Island, Nusa Tenggara Barat, Indonesia

Public forecast

Using degrees Celsius for public forecast. Weather courtesy of forecast.io.

METAR (pilot weather report)

Report is more than 6 hours old.

Retrieved 2015/04/28 03:00 UTC (4 years ago):

WADA 280300Z 15004KT 9999 SCT016 26/25 Q1011

TAF (pilot weather forecast)

Forecast is more than 12 hours old.

Retrieved 2011/10/02 12:00 UTC (7 years ago):

TAF WADA 021100Z 0212/0312 14005KT 7000 SCT020 BECMG 0212/0214 00000KT FEW0023 BECMG 0221/0223 09006KT 9999 BECMG 0302/0304 14012KT SCT020 TEMPO 0308/0311 BKN018